createdAt,value
2022-11-14T00:00:10.135Z,8.60
2022-11-14T00:02:41.058Z,8.50
2022-11-14T00:05:13.006Z,8.50
2022-11-14T00:07:43.632Z,8.40
2022-11-14T00:10:14.208Z,8.50
2022-11-14T00:12:44.986Z,8.50
2022-11-14T00:15:16.591Z,8.30
2022-11-14T00:17:47.196Z,8.30
2022-11-14T00:20:18.359Z,8.30
2022-11-14T00:22:48.894Z,8.20
2022-11-14T00:25:20.655Z,8.20
2022-11-14T00:27:51.191Z,8.30
2022-11-14T00:30:21.884Z,8.30
2022-11-14T00:32:52.549Z,8.30
2022-11-14T00:35:23.136Z,8.40
2022-11-14T00:37:53.631Z,8.40
2022-11-14T00:40:24.241Z,8.40
2022-11-14T00:42:54.979Z,8.50
2022-11-14T00:45:25.672Z,8.60
2022-11-14T00:47:56.225Z,8.50
2022-11-14T00:50:26.722Z,8.60
2022-11-14T00:52:57.261Z,8.50
2022-11-14T00:55:27.830Z,8.50
2022-11-14T00:57:58.343Z,8.70
2022-11-14T01:00:29.039Z,8.60
2022-11-14T01:02:59.726Z,8.60
2022-11-14T01:05:30.319Z,8.70
2022-11-14T01:08:00.922Z,8.70
2022-11-14T01:10:31.495Z,8.70
2022-11-14T01:13:02.029Z,8.70
2022-11-14T01:15:32.619Z,8.80
2022-11-14T01:18:03.320Z,8.70
2022-11-14T01:20:34.040Z,8.60
2022-11-14T01:23:04.569Z,8.50
2022-11-14T01:25:36.576Z,8.60
2022-11-14T01:28:10.371Z,8.60
2022-11-14T01:30:41.617Z,8.80
2022-11-14T01:33:12.205Z,8.90
2022-11-14T01:35:42.715Z,9.10
2022-11-14T01:38:16.142Z,9.20
2022-11-14T01:40:47.176Z,9.30
2022-11-14T01:43:29.842Z,9.30
2022-11-14T01:46:03.797Z,9.30
2022-11-14T01:48:42.511Z,9.40
2022-11-14T01:51:24.865Z,9.20
2022-11-14T01:53:57.870Z,8.90
2022-11-14T01:56:31.439Z,8.70
2022-11-14T01:59:04.976Z,8.60
2022-11-14T02:01:38.262Z,8.50
2022-11-14T02:04:14.201Z,8.40
2022-11-14T02:06:43.335Z,8.50
2022-11-14T02:09:13.912Z,8.50
2022-11-14T02:14:24.731Z,8.70
2022-11-14T02:17:22.232Z,8.60
2022-11-14T02:19:27.572Z,8.70
2022-11-14T02:21:58.246Z,8.90
2022-11-14T02:24:28.817Z,9.10
2022-11-14T02:26:59.486Z,9.30
2022-11-14T02:29:30.003Z,9.30
2022-11-14T02:32:01.105Z,9.40
2022-11-14T02:34:31.923Z,9.50
2022-11-14T02:37:02.557Z,9.40
2022-11-14T02:39:33.104Z,9.30
2022-11-14T02:42:03.633Z,9.10
2022-11-14T02:44:34.193Z,9.00
2022-11-14T02:47:04.701Z,8.70
2022-11-14T02:49:35.203Z,8.70
2022-11-14T02:52:06.098Z,8.60
2022-11-14T02:54:36.702Z,8.50
2022-11-14T02:57:07.293Z,8.40
2022-11-14T02:59:37.840Z,8.40
2022-11-14T03:02:08.487Z,8.50
2022-11-14T03:04:39.355Z,8.50
2022-11-14T03:07:09.939Z,8.60
2022-11-14T03:09:40.535Z,8.70
2022-11-14T03:12:11.250Z,8.70
2022-11-14T03:14:42.020Z,8.80
2022-11-14T03:17:12.588Z,8.90
2022-11-14T03:19:43.104Z,8.80
2022-11-14T03:22:13.660Z,8.70
2022-11-14T03:24:44.293Z,8.50
2022-11-14T03:27:14.942Z,8.60
2022-11-14T03:29:45.488Z,8.60
2022-11-14T03:32:16.406Z,8.60
2022-11-14T03:34:47.155Z,8.60
2022-11-14T03:37:17.715Z,8.60
2022-11-14T03:39:48.248Z,8.50
2022-11-14T03:42:18.938Z,8.50
2022-11-14T03:44:49.533Z,8.50
2022-11-14T03:47:20.053Z,8.50
2022-11-14T03:49:50.610Z,8.60
2022-11-14T03:52:21.151Z,8.60
2022-11-14T03:54:51.769Z,8.50
2022-11-14T03:57:22.351Z,8.60
2022-11-14T03:59:52.877Z,8.60
2022-11-14T04:02:23.405Z,8.70
2022-11-14T04:04:53.995Z,8.70
2022-11-14T04:07:24.646Z,8.90
2022-11-14T04:09:55.470Z,8.80
2022-11-14T04:12:26.007Z,8.70
2022-11-14T04:14:56.768Z,8.60
2022-11-14T04:17:27.362Z,8.60
2022-11-14T04:19:57.901Z,8.60
2022-11-14T04:22:28.457Z,8.70
2022-11-14T04:24:59.059Z,8.70
2022-11-14T04:27:29.562Z,8.60
2022-11-14T04:30:00.092Z,8.60
2022-11-14T04:32:30.831Z,8.70
2022-11-14T04:35:02.050Z,8.60
2022-11-14T04:37:32.563Z,8.60
2022-11-14T04:40:03.427Z,8.50
2022-11-14T04:42:33.959Z,8.50
2022-11-14T04:45:06.597Z,8.50
2022-11-14T04:47:37.319Z,8.80
2022-11-14T04:50:10.788Z,8.80
2022-11-14T04:52:41.339Z,8.70
2022-11-14T04:55:12.306Z,8.70
2022-11-14T04:57:42.863Z,8.70
2022-11-14T05:00:17.077Z,8.60
2022-11-14T05:02:47.673Z,8.70
2022-11-14T05:05:18.576Z,8.90
2022-11-14T05:07:49.079Z,8.90
2022-11-14T05:10:19.980Z,8.90
2022-11-14T05:12:50.481Z,8.80
2022-11-14T05:15:21.310Z,8.80
2022-11-14T05:20:28.070Z,8.80
2022-11-14T05:22:58.682Z,8.70
2022-11-14T05:25:29.217Z,8.80
2022-11-14T05:27:59.980Z,8.80
2022-11-14T05:30:30.532Z,9.00
2022-11-14T05:33:01.061Z,9.00
2022-11-14T05:35:31.721Z,9.10
2022-11-14T05:38:03.940Z,9.10
2022-11-14T05:40:34.527Z,9.20
2022-11-14T05:43:05.066Z,9.20
2022-11-14T05:48:14.914Z,9.20
2022-11-14T05:50:45.460Z,9.10
2022-11-14T05:53:15.972Z,9.20
2022-11-14T05:55:47.122Z,9.20
2022-11-14T05:58:17.696Z,9.30
2022-11-14T06:00:53.938Z,9.30
2022-11-14T06:03:21.832Z,9.30
2022-11-14T06:08:31.578Z,9.30
2022-11-14T06:11:06.531Z,9.30
2022-11-14T06:13:37.824Z,9.20
2022-11-14T06:16:11.690Z,9.10
2022-11-14T06:18:42.881Z,9.10
2022-11-14T06:21:16.029Z,9.10
2022-11-14T06:23:47.667Z,8.90
2022-11-14T06:26:23.148Z,8.80
2022-11-14T06:28:54.677Z,8.80
2022-11-14T06:31:26.021Z,8.90
2022-11-14T06:33:57.017Z,9.00
2022-11-14T06:36:27.532Z,9.10
2022-11-14T06:38:58.058Z,9.20
2022-11-14T06:41:28.614Z,9.20
2022-11-14T06:43:59.136Z,9.20
2022-11-14T06:46:29.664Z,9.30
2022-11-14T06:49:00.226Z,9.30
2022-11-14T06:51:30.753Z,9.20
2022-11-14T06:54:01.411Z,9.30
2022-11-14T06:56:32.021Z,9.40
2022-11-14T06:59:02.550Z,9.50
2022-11-14T07:01:33.108Z,9.50
2022-11-14T07:04:04.731Z,9.50
2022-11-14T07:06:35.485Z,9.60
2022-11-14T07:09:06.479Z,9.70
2022-11-14T07:11:37.906Z,9.80
2022-11-14T07:14:08.488Z,9.80
2022-11-14T07:16:39.306Z,9.90
2022-11-14T07:19:11.314Z,10.00
2022-11-14T07:21:42.008Z,9.90
2022-11-14T07:24:12.620Z,9.90
2022-11-14T07:26:43.142Z,10.00
2022-11-14T07:29:13.976Z,10.00
2022-11-14T07:31:44.494Z,10.00
2022-11-14T07:34:15.265Z,10.00
2022-11-14T07:36:45.935Z,10.10
2022-11-14T07:39:16.547Z,10.10
2022-11-14T07:41:47.074Z,10.20
2022-11-14T07:44:17.756Z,10.20
2022-11-14T07:46:49.844Z,10.30
2022-11-14T07:49:20.371Z,10.40
2022-11-14T07:51:50.930Z,10.50
2022-11-14T07:54:21.545Z,10.40
2022-11-14T07:56:52.141Z,10.50
2022-11-14T07:59:22.666Z,10.50
2022-11-14T08:01:53.206Z,10.70
2022-11-14T08:04:23.764Z,10.70
2022-11-14T08:06:54.452Z,10.80
2022-11-14T08:09:25.108Z,10.90
2022-11-14T08:11:55.701Z,10.90
2022-11-14T08:14:26.373Z,11.00
2022-11-14T08:16:56.899Z,11.10
2022-11-14T08:19:27.437Z,11.10
2022-11-14T08:21:57.979Z,11.20
2022-11-14T08:24:28.640Z,11.30
2022-11-14T08:26:59.383Z,11.30
2022-11-14T08:29:29.969Z,11.40
2022-11-14T08:32:00.496Z,11.40
2022-11-14T08:34:31.309Z,11.50
2022-11-14T08:37:02.515Z,11.60
2022-11-14T08:39:33.059Z,11.60
2022-11-14T08:42:03.956Z,11.70
2022-11-14T08:44:34.583Z,11.70
2022-11-14T08:47:05.298Z,11.80
2022-11-14T08:49:35.822Z,11.90
2022-11-14T08:52:06.808Z,12.00
2022-11-14T08:54:37.518Z,12.00
2022-11-14T08:57:08.058Z,12.10
2022-11-14T08:59:38.648Z,12.20
2022-11-14T09:02:10.923Z,12.30
2022-11-14T09:04:42.037Z,12.40
2022-11-14T09:07:12.698Z,12.40
2022-11-14T09:09:43.486Z,12.50
2022-11-14T09:12:14.097Z,12.60
2022-11-14T09:14:44.786Z,12.60
2022-11-14T09:17:15.473Z,12.60
2022-11-14T09:19:45.999Z,12.70
2022-11-14T09:22:16.524Z,12.60
2022-11-14T09:24:49.692Z,12.60
2022-11-14T09:27:20.250Z,12.70
2022-11-14T09:29:50.802Z,12.70
2022-11-14T09:32:21.369Z,12.70
2022-11-14T09:34:51.904Z,12.90
2022-11-14T09:37:22.535Z,12.90
2022-11-14T09:39:53.102Z,12.90
2022-11-14T09:42:34.126Z,12.90
2022-11-14T09:45:07.603Z,12.90
2022-11-14T09:47:41.103Z,13.00
2022-11-14T09:50:18.037Z,13.10
2022-11-14T09:52:53.071Z,13.10
2022-11-14T09:55:25.409Z,13.20
2022-11-14T09:57:56.451Z,13.40
2022-11-14T10:00:29.709Z,13.50
2022-11-14T10:03:07.353Z,13.50
2022-11-14T10:05:49.181Z,13.60
2022-11-14T10:08:30.284Z,13.70
2022-11-14T10:11:04.689Z,13.80
2022-11-14T10:13:56.765Z,13.80
2022-11-14T10:16:30.348Z,13.90
2022-11-14T10:19:20.121Z,13.90
2022-11-14T10:21:58.411Z,13.90
2022-11-14T10:24:49.594Z,13.90
2022-11-14T10:27:23.255Z,13.80
2022-11-14T10:30:14.011Z,13.90
2022-11-14T10:33:10.204Z,13.90
2022-11-14T10:35:44.217Z,13.90
2022-11-14T10:38:18.169Z,13.90
2022-11-14T10:40:52.646Z,13.90
2022-11-14T10:43:27.790Z,13.90
2022-11-14T10:46:01.384Z,14.00
2022-11-14T10:48:37.357Z,14.00
2022-11-14T10:51:13.144Z,13.90
2022-11-14T10:53:52.434Z,13.90
2022-11-14T10:56:23.127Z,13.90
2022-11-14T10:58:53.669Z,14.00
2022-11-14T11:01:39.273Z,14.00
2022-11-14T11:04:22.997Z,14.10
2022-11-14T11:06:56.107Z,14.10
2022-11-14T11:09:46.436Z,14.20
2022-11-14T11:12:20.330Z,14.10
2022-11-14T11:14:53.469Z,14.10
2022-11-14T11:17:31.360Z,14.10
2022-11-14T11:19:59.642Z,14.20
2022-11-14T11:22:38.498Z,14.10
2022-11-14T11:25:26.596Z,14.10
2022-11-14T11:28:14.047Z,14.20
2022-11-14T11:30:54.391Z,14.10
2022-11-14T11:33:27.656Z,14.10
2022-11-14T11:36:01.322Z,14.20
2022-11-14T11:38:34.202Z,14.20
2022-11-14T11:41:25.839Z,14.10
2022-11-14T11:43:56.542Z,14.10
2022-11-14T11:46:26.522Z,14.10
2022-11-14T11:49:00.802Z,14.10
2022-11-14T11:51:31.680Z,14.10
2022-11-14T11:54:06.109Z,14.20
2022-11-14T11:56:38.114Z,14.20
2022-11-14T11:59:14.341Z,14.30
2022-11-14T12:01:44.874Z,14.40
2022-11-14T12:04:15.634Z,14.50
2022-11-14T12:06:49.610Z,14.50
2022-11-14T12:09:29.502Z,14.60
2022-11-14T12:11:59.669Z,14.60
2022-11-14T12:14:51.548Z,14.80
2022-11-14T12:17:40.661Z,14.80
2022-11-14T12:20:37.549Z,14.80
2022-11-14T12:23:51.981Z,14.90
2022-11-14T12:26:32.735Z,14.90
2022-11-14T12:29:25.069Z,15.00
2022-11-14T12:31:55.561Z,15.10
2022-11-14T12:34:29.390Z,15.10
2022-11-14T12:37:00.749Z,14.90
2022-11-14T12:39:33.085Z,14.80
2022-11-14T12:42:08.303Z,14.60
2022-11-14T12:44:41.081Z,14.50
2022-11-14T12:47:23.679Z,14.50
2022-11-14T12:50:07.117Z,14.50
2022-11-14T12:56:09.591Z,14.40
2022-11-14T12:59:06.820Z,14.20
2022-11-14T13:01:47.556Z,14.10
2022-11-14T13:04:33.464Z,13.90
2022-11-14T13:07:11.878Z,14.00
2022-11-14T13:09:57.057Z,14.00
2022-11-14T13:12:53.210Z,14.00
2022-11-14T13:15:49.893Z,13.90
2022-11-14T13:18:46.051Z,13.90
2022-11-14T13:21:45.686Z,14.00
2022-11-14T13:24:53.476Z,13.90
2022-11-14T13:27:52.189Z,14.00
2022-11-14T13:30:02.832Z,14.10
2022-11-14T13:33:10.326Z,14.10
2022-11-14T13:36:02.237Z,14.20
2022-11-14T13:39:06.786Z,14.20
2022-11-14T13:41:56.800Z,14.30
2022-11-14T13:44:44.113Z,14.40
2022-11-14T13:47:48.951Z,14.30
2022-11-14T13:50:23.006Z,14.30
2022-11-14T13:52:54.068Z,14.40
2022-11-14T13:55:27.220Z,14.30
2022-11-14T13:58:08.431Z,14.50
2022-11-14T14:00:58.132Z,14.60
2022-11-14T14:03:40.064Z,14.50
2022-11-14T14:06:18.114Z,14.50
2022-11-14T14:09:13.959Z,14.50
2022-11-14T14:12:00.482Z,14.50
2022-11-14T14:14:40.905Z,14.50
2022-11-14T14:17:15.286Z,14.50
2022-11-14T14:19:56.431Z,14.60
2022-11-14T14:22:31.586Z,14.60
2022-11-14T14:25:06.762Z,14.50
2022-11-14T14:27:41.333Z,14.40
2022-11-14T14:30:13.958Z,14.40
2022-11-14T14:32:46.175Z,14.30
2022-11-14T14:35:26.671Z,14.20
2022-11-14T14:37:58.524Z,14.20
2022-11-14T14:40:33.555Z,14.10
2022-11-14T14:43:06.798Z,14.10
2022-11-14T14:45:41.439Z,14.00
2022-11-14T14:48:16.454Z,14.00
2022-11-14T14:50:50.528Z,13.90
2022-11-14T14:53:24.016Z,13.90
2022-11-14T14:55:57.726Z,13.60
2022-11-14T14:58:30.900Z,13.40
2022-11-14T15:01:04.228Z,13.30
2022-11-14T15:03:38.951Z,13.20
2022-11-14T15:06:21.142Z,13.20
2022-11-14T15:08:52.312Z,13.20
2022-11-14T15:11:22.948Z,13.10
2022-11-14T15:13:57.046Z,13.10
2022-11-14T15:16:29.173Z,13.10
2022-11-14T15:19:01.255Z,13.10
2022-11-14T15:21:32.906Z,13.00
2022-11-14T15:24:06.343Z,13.00
2022-11-14T15:26:37.635Z,12.90
2022-11-14T15:29:10.951Z,12.80
2022-11-14T15:31:43.055Z,12.80
2022-11-14T15:34:33.579Z,12.80
2022-11-14T15:37:22.547Z,12.70
2022-11-14T15:39:53.224Z,12.80
2022-11-14T15:42:29.439Z,12.80
2022-11-14T15:45:00.288Z,12.80
2022-11-14T15:47:33.570Z,12.60
2022-11-14T15:50:06.387Z,12.50
2022-11-14T15:52:39.717Z,12.60
2022-11-14T15:55:16.640Z,12.50
2022-11-14T15:57:55.833Z,12.40
2022-11-14T16:00:20.847Z,12.40
2022-11-14T16:02:54.292Z,12.40
2022-11-14T16:05:27.992Z,12.40
2022-11-14T16:07:58.773Z,12.40
2022-11-14T16:10:30.243Z,12.30
2022-11-14T16:13:00.793Z,12.30
2022-11-14T16:15:33.198Z,12.20
2022-11-14T16:18:05.556Z,12.40
2022-11-14T16:20:37.665Z,12.20
2022-11-14T16:23:10.190Z,12.20
2022-11-14T16:25:40.711Z,12.20
2022-11-14T16:28:11.443Z,12.10
2022-11-14T16:30:42.243Z,12.10
2022-11-14T16:33:12.781Z,12.10
2022-11-14T16:35:43.421Z,12.10
2022-11-14T16:38:16.407Z,12.00
2022-11-14T16:40:47.285Z,12.00
2022-11-14T16:43:17.944Z,12.00
2022-11-14T16:45:48.514Z,12.00
2022-11-14T16:48:19.176Z,11.90
2022-11-14T16:50:54.136Z,11.90
2022-11-14T16:53:22.041Z,12.00
2022-11-14T16:55:52.600Z,12.00
2022-11-14T16:58:23.608Z,12.00
2022-11-14T17:00:54.175Z,12.10
2022-11-14T17:03:25.530Z,12.10
2022-11-14T17:05:56.164Z,12.00
2022-11-14T17:08:27.120Z,12.00
2022-11-14T17:10:57.781Z,11.90
2022-11-14T17:13:32.019Z,11.90
2022-11-14T17:16:04.361Z,11.90
2022-11-14T17:18:38.616Z,11.80
2022-11-14T17:23:48.713Z,11.80
2022-11-14T17:26:19.305Z,11.80
2022-11-14T17:28:49.882Z,11.80
2022-11-14T17:31:20.962Z,11.90
2022-11-14T17:33:56.030Z,11.90
2022-11-14T17:36:28.216Z,11.90
2022-11-14T17:38:59.511Z,11.90
2022-11-14T17:41:30.213Z,11.90
2022-11-14T17:44:02.817Z,11.90
2022-11-14T17:46:34.025Z,11.90
2022-11-14T17:49:05.117Z,11.80
2022-11-14T17:51:35.802Z,11.80
2022-11-14T17:54:06.817Z,11.70
2022-11-14T17:56:42.634Z,11.60
2022-11-14T17:59:10.514Z,11.60
2022-11-14T18:01:41.100Z,11.70
2022-11-14T18:04:12.753Z,11.70
2022-11-14T18:06:43.340Z,11.60
2022-11-14T18:09:14.714Z,11.50
2022-11-14T18:11:45.591Z,11.50
2022-11-14T18:14:16.300Z,11.50
2022-11-14T18:17:11.180Z,11.50
2022-11-14T18:19:19.247Z,11.50
2022-11-14T18:21:53.429Z,11.40
2022-11-14T18:24:23.775Z,11.40
2022-11-14T18:26:55.793Z,11.40
2022-11-14T18:29:27.949Z,11.30
2022-11-14T18:31:58.747Z,11.30
2022-11-14T18:34:29.372Z,11.30
2022-11-14T18:37:00.471Z,11.30
2022-11-14T18:39:31.501Z,11.30
2022-11-14T18:42:02.233Z,11.30
2022-11-14T18:44:33.334Z,11.30
2022-11-14T18:47:03.938Z,11.30
2022-11-14T18:49:34.503Z,11.20
2022-11-14T18:52:11.359Z,11.20
2022-11-14T18:54:38.145Z,11.20
2022-11-14T18:57:08.743Z,11.20
2022-11-14T18:59:39.331Z,11.20
2022-11-14T19:02:11.041Z,11.20
2022-11-14T19:04:41.726Z,11.20
2022-11-14T19:07:12.338Z,11.20
2022-11-14T19:09:44.708Z,11.20
2022-11-14T19:12:23.622Z,11.10
2022-11-14T19:14:54.395Z,11.10
2022-11-14T19:17:24.971Z,11.10
2022-11-14T19:19:55.491Z,11.00
2022-11-14T19:22:26.088Z,11.00
2022-11-14T19:25:15.502Z,10.90
2022-11-14T19:27:47.504Z,11.00
2022-11-14T19:30:18.961Z,10.90
2022-11-14T19:32:49.471Z,10.90
2022-11-14T19:35:20.792Z,10.90
2022-11-14T19:37:51.676Z,10.90
2022-11-14T19:40:22.307Z,10.90
2022-11-14T19:42:57.999Z,10.90
2022-11-14T19:45:28.587Z,10.90
2022-11-14T19:47:59.161Z,10.90
2022-11-14T19:50:29.749Z,10.90
2022-11-14T19:53:00.544Z,10.90
2022-11-14T19:55:32.343Z,11.00
2022-11-14T19:58:02.923Z,11.00
2022-11-14T20:00:33.435Z,11.10
2022-11-14T20:03:04.252Z,11.00
2022-11-14T20:05:35.638Z,11.00
2022-11-14T20:08:06.794Z,10.90
2022-11-14T20:10:44.592Z,11.00
2022-11-14T20:13:14.129Z,10.90
2022-11-14T20:15:44.716Z,10.80
2022-11-14T20:18:15.481Z,10.80
2022-11-14T20:20:46.189Z,10.70
2022-11-14T20:23:16.910Z,10.70
2022-11-14T20:25:53.674Z,10.70
2022-11-14T20:28:24.369Z,10.60
2022-11-14T20:30:55.194Z,10.60
2022-11-14T20:36:06.232Z,10.60
2022-11-14T20:38:36.923Z,10.70
2022-11-14T20:41:07.811Z,10.70
2022-11-14T20:46:18.809Z,10.80
2022-11-14T20:48:50.016Z,10.80
2022-11-14T20:51:22.164Z,10.80
2022-11-14T20:53:55.144Z,10.80
2022-11-14T20:56:26.294Z,10.80
2022-11-14T20:58:56.985Z,10.80
2022-11-14T21:01:27.625Z,10.80
2022-11-14T21:03:58.490Z,10.80
2022-11-14T21:06:29.038Z,10.80
2022-11-14T21:08:59.965Z,10.70
2022-11-14T21:11:30.545Z,10.80
2022-11-14T21:14:01.843Z,10.80
2022-11-14T21:16:34.905Z,10.70
2022-11-14T21:19:07.628Z,10.70
2022-11-14T21:21:39.241Z,10.60
2022-11-14T21:24:12.397Z,10.60
2022-11-14T21:26:42.940Z,10.60
2022-11-14T21:29:15.504Z,10.60
2022-11-14T21:31:47.776Z,10.60
2022-11-14T21:34:19.003Z,10.60
2022-11-14T21:36:50.073Z,10.70
2022-11-14T21:39:20.587Z,10.70
2022-11-14T21:41:51.287Z,10.80
2022-11-14T21:44:22.435Z,10.80
2022-11-14T21:46:54.495Z,10.70
2022-11-14T21:49:25.723Z,10.70
2022-11-14T21:51:56.262Z,10.70
2022-11-14T21:54:26.902Z,10.80
2022-11-14T21:56:57.470Z,10.70
2022-11-14T21:59:29.129Z,10.70
2022-11-14T22:02:17.370Z,10.70
2022-11-14T22:04:48.534Z,10.70
2022-11-14T22:07:19.127Z,10.70
2022-11-14T22:09:49.722Z,10.70
2022-11-14T22:12:20.263Z,10.70
2022-11-14T22:14:50.857Z,10.70
2022-11-14T22:17:21.428Z,10.70
2022-11-14T22:19:51.995Z,10.70
2022-11-14T22:22:22.534Z,10.70
2022-11-14T22:24:53.103Z,10.80
2022-11-14T22:27:23.599Z,10.80
2022-11-14T22:29:54.183Z,10.90
2022-11-14T22:32:24.757Z,10.90
2022-11-14T22:34:55.411Z,10.90
2022-11-14T22:37:26.006Z,10.90
2022-11-14T22:40:15.479Z,10.90
2022-11-14T22:42:45.972Z,10.90
2022-11-14T22:45:16.848Z,10.90
2022-11-14T22:47:47.394Z,10.90
2022-11-14T22:50:18.324Z,10.90
2022-11-14T22:52:48.837Z,10.90
2022-11-14T22:55:19.469Z,10.90
2022-11-14T22:57:50.010Z,10.90
2022-11-14T23:00:21.603Z,10.90
2022-11-14T23:02:54.502Z,10.90
2022-11-14T23:05:25.171Z,10.90
2022-11-14T23:07:56.162Z,10.90
2022-11-14T23:10:26.695Z,10.90
2022-11-14T23:12:57.229Z,10.80
2022-11-14T23:15:27.853Z,10.80
2022-11-14T23:17:59.472Z,10.90
2022-11-14T23:20:30.742Z,10.80
2022-11-14T23:23:04.158Z,10.80
2022-11-14T23:25:36.313Z,10.80
2022-11-14T23:28:07.153Z,10.80
2022-11-14T23:30:37.911Z,10.80
2022-11-14T23:33:08.519Z,10.90
2022-11-14T23:35:40.811Z,10.90
2022-11-14T23:38:11.540Z,10.90
2022-11-14T23:40:42.335Z,10.90
2022-11-14T23:43:12.899Z,10.90
2022-11-14T23:45:45.826Z,10.90
2022-11-14T23:48:16.632Z,11.00
2022-11-14T23:50:48.860Z,11.00
2022-11-14T23:53:19.977Z,11.00
2022-11-14T23:55:55.519Z,10.90
2022-11-14T23:58:27.345Z,10.90
